sensor_id;sensor_type;location;lat;lon;timestamp;temperature;humidity
22966;DHT22;11649;48.090;9.754;2023-02-18T00:01:31;10.30;99.90
22966;DHT22;11649;48.090;9.754;2023-02-18T00:03:59;10.30;99.90
22966;DHT22;11649;48.090;9.754;2023-02-18T00:06:28;10.20;99.90
22966;DHT22;11649;48.090;9.754;2023-02-18T00:08:56;10.30;99.90
22966;DHT22;11649;48.090;9.754;2023-02-18T00:11:24;10.30;99.90
22966;DHT22;11649;48.090;9.754;2023-02-18T00:13:57;10.30;99.90
22966;DHT22;11649;48.090;9.754;2023-02-18T00:16:25;10.20;99.90
22966;DHT22;11649;48.090;9.754;2023-02-18T00:19:01;10.30;99.90
22966;DHT22;11649;48.090;9.754;2023-02-18T00:21:29;10.20;99.90
22966;DHT22;11649;48.090;9.754;2023-02-18T00:23:56;10.60;99.90
22966;DHT22;11649;48.090;9.754;2023-02-18T00:26:23;10.20;99.90
22966;DHT22;11649;48.090;9.754;2023-02-18T00:28:50;10.20;99.90
22966;DHT22;11649;48.090;9.754;2023-02-18T00:31:24;10.10;99.90
22966;DHT22;11649;48.090;9.754;2023-02-18T00:33:51;10.00;99.90
22966;DHT22;11649;48.090;9.754;2023-02-18T00:36:20;10.00;99.90
22966;DHT22;11649;48.090;9.754;2023-02-18T00:38:49;10.00;99.90
22966;DHT22;11649;48.090;9.754;2023-02-18T00:41:16;10.00;99.90
22966;DHT22;11649;48.090;9.754;2023-02-18T00:43:43;9.90;99.90
22966;DHT22;11649;48.090;9.754;2023-02-18T00:46:10;9.90;99.90
22966;DHT22;11649;48.090;9.754;2023-02-18T00:48:37;9.90;99.90
22966;DHT22;11649;48.090;9.754;2023-02-18T00:51:05;10.00;99.90
22966;DHT22;11649;48.090;9.754;2023-02-18T00:53:33;9.90;99.90
22966;DHT22;11649;48.090;9.754;2023-02-18T00:56:00;9.90;99.90
22966;DHT22;11649;48.090;9.754;2023-02-18T00:58:27;10.00;99.90
22966;DHT22;11649;48.090;9.754;2023-02-18T01:00:55;10.00;99.90
22966;DHT22;11649;48.090;9.754;2023-02-18T01:03:22;10.00;99.90
22966;DHT22;11649;48.090;9.754;2023-02-18T01:05:51;9.90;99.90
22966;DHT22;11649;48.090;9.754;2023-02-18T01:08:19;9.90;99.90
22966;DHT22;11649;48.090;9.754;2023-02-18T01:10:48;9.80;99.90
22966;DHT22;11649;48.090;9.754;2023-02-18T01:13:15;9.80;99.90
22966;DHT22;11649;48.090;9.754;2023-02-18T01:15:42;9.90;99.90
22966;DHT22;11649;48.090;9.754;2023-02-18T01:18:09;9.90;99.90
22966;DHT22;11649;48.090;9.754;2023-02-18T01:20:38;9.80;99.90
22966;DHT22;11649;48.090;9.754;2023-02-18T01:23:05;9.80;99.90
22966;DHT22;11649;48.090;9.754;2023-02-18T01:25:32;9.90;99.90
22966;DHT22;11649;48.090;9.754;2023-02-18T01:27:59;9.90;99.90
22966;DHT22;11649;48.090;9.754;2023-02-18T01:30:25;9.90;99.90
22966;DHT22;11649;48.090;9.754;2023-02-18T01:32:52;9.90;99.90
22966;DHT22;11649;48.090;9.754;2023-02-18T01:35:19;9.80;99.90
22966;DHT22;11649;48.090;9.754;2023-02-18T01:37:46;9.80;99.90
22966;DHT22;11649;48.090;9.754;2023-02-18T01:40:16;9.80;99.90
22966;DHT22;11649;48.090;9.754;2023-02-18T01:42:43;9.90;99.90
22966;DHT22;11649;48.090;9.754;2023-02-18T01:48:24;9.80;99.90
22966;DHT22;11649;48.090;9.754;2023-02-18T01:51:02;9.80;99.90
22966;DHT22;11649;48.090;9.754;2023-02-18T01:53:36;9.80;99.90
22966;DHT22;11649;48.090;9.754;2023-02-18T01:56:07;9.80;99.90
22966;DHT22;11649;48.090;9.754;2023-02-18T01:58:36;9.80;99.90
22966;DHT22;11649;48.090;9.754;2023-02-18T02:01:04;9.80;99.90
22966;DHT22;11649;48.090;9.754;2023-02-18T02:03:31;9.80;99.90
22966;DHT22;11649;48.090;9.754;2023-02-18T02:05:58;9.80;99.90
22966;DHT22;11649;48.090;9.754;2023-02-18T02:08:25;9.80;99.90
22966;DHT22;11649;48.090;9.754;2023-02-18T02:11:03;9.90;99.90
22966;DHT22;11649;48.090;9.754;2023-02-18T02:16:08;9.90;99.90
22966;DHT22;11649;48.090;9.754;2023-02-18T02:30:55;9.80;99.90
22966;DHT22;11649;48.090;9.754;2023-02-18T02:38:57;9.70;99.90
22966;DHT22;11649;48.090;9.754;2023-02-18T02:41:41;9.70;99.90
22966;DHT22;11649;48.090;9.754;2023-02-18T02:46:47;9.60;99.90
22966;DHT22;11649;48.090;9.754;2023-02-18T02:52:22;9.60;99.90
22966;DHT22;11649;48.090;9.754;2023-02-18T02:54:50;9.70;99.90
22966;DHT22;11649;48.090;9.754;2023-02-18T02:59:51;9.60;99.90
22966;DHT22;11649;48.090;9.754;2023-02-18T03:05:17;9.60;99.90
22966;DHT22;11649;48.090;9.754;2023-02-18T03:08:16;9.60;99.90
22966;DHT22;11649;48.090;9.754;2023-02-18T03:10:51;9.60;99.90
22966;DHT22;11649;48.090;9.754;2023-02-18T03:13:28;9.60;99.90
22966;DHT22;11649;48.090;9.754;2023-02-18T03:18:59;9.60;99.90
22966;DHT22;11649;48.090;9.754;2023-02-18T03:21:34;9.60;99.90
22966;DHT22;11649;48.090;9.754;2023-02-18T03:24:08;9.60;99.90
22966;DHT22;11649;48.090;9.754;2023-02-18T03:26:40;9.60;99.90
22966;DHT22;11649;48.090;9.754;2023-02-18T03:29:09;9.60;99.90
22966;DHT22;11649;48.090;9.754;2023-02-18T03:31:38;9.60;99.90
22966;DHT22;11649;48.090;9.754;2023-02-18T03:34:11;9.50;99.90
22966;DHT22;11649;48.090;9.754;2023-02-18T03:36:39;9.50;99.90
22966;DHT22;11649;48.090;9.754;2023-02-18T03:39:17;9.50;99.90
22966;DHT22;11649;48.090;9.754;2023-02-18T03:41:45;9.50;99.90
22966;DHT22;11649;48.090;9.754;2023-02-18T03:44:12;9.50;99.90
22966;DHT22;11649;48.090;9.754;2023-02-18T03:46:41;9.40;99.90
22966;DHT22;11649;48.090;9.754;2023-02-18T03:49:10;9.40;99.90
22966;DHT22;11649;48.090;9.754;2023-02-18T03:51:38;9.40;99.90
22966;DHT22;11649;48.090;9.754;2023-02-18T03:54:05;9.40;99.90
22966;DHT22;11649;48.090;9.754;2023-02-18T03:56:32;9.40;99.90
22966;DHT22;11649;48.090;9.754;2023-02-18T03:58:59;9.40;99.90
22966;DHT22;11649;48.090;9.754;2023-02-18T04:01:26;9.40;99.90
22966;DHT22;11649;48.090;9.754;2023-02-18T04:03:53;9.40;99.90
22966;DHT22;11649;48.090;9.754;2023-02-18T04:06:23;9.40;99.90
22966;DHT22;11649;48.090;9.754;2023-02-18T04:08:50;9.30;99.90
22966;DHT22;11649;48.090;9.754;2023-02-18T04:11:17;9.30;99.90
22966;DHT22;11649;48.090;9.754;2023-02-18T04:13:44;9.30;99.90
22966;DHT22;11649;48.090;9.754;2023-02-18T04:16:11;9.30;99.90
22966;DHT22;11649;48.090;9.754;2023-02-18T04:18:38;9.30;99.90
22966;DHT22;11649;48.090;9.754;2023-02-18T04:21:05;9.40;99.90
22966;DHT22;11649;48.090;9.754;2023-02-18T04:23:31;9.30;99.90
22966;DHT22;11649;48.090;9.754;2023-02-18T04:25:58;9.30;99.90
22966;DHT22;11649;48.090;9.754;2023-02-18T04:28:25;9.30;99.90
22966;DHT22;11649;48.090;9.754;2023-02-18T04:30:52;9.30;99.90
22966;DHT22;11649;48.090;9.754;2023-02-18T04:33:18;9.30;99.90
22966;DHT22;11649;48.090;9.754;2023-02-18T04:35:45;9.40;99.90
22966;DHT22;11649;48.090;9.754;2023-02-18T04:38:12;9.30;99.90
22966;DHT22;11649;48.090;9.754;2023-02-18T04:40:39;9.30;99.90
22966;DHT22;11649;48.090;9.754;2023-02-18T04:43:06;9.30;99.90
22966;DHT22;11649;48.090;9.754;2023-02-18T04:45:32;9.20;99.90
22966;DHT22;11649;48.090;9.754;2023-02-18T04:47:59;9.20;99.90
22966;DHT22;11649;48.090;9.754;2023-02-18T04:50:26;9.20;99.90
22966;DHT22;11649;48.090;9.754;2023-02-18T04:52:53;9.20;99.90
22966;DHT22;11649;48.090;9.754;2023-02-18T04:55:20;9.20;99.90
22966;DHT22;11649;48.090;9.754;2023-02-18T04:57:46;9.10;99.90
22966;DHT22;11649;48.090;9.754;2023-02-18T05:00:16;9.10;99.90
22966;DHT22;11649;48.090;9.754;2023-02-18T05:02:44;9.20;99.90
22966;DHT22;11649;48.090;9.754;2023-02-18T05:05:11;9.20;99.90
22966;DHT22;11649;48.090;9.754;2023-02-18T05:07:38;9.20;99.90
22966;DHT22;11649;48.090;9.754;2023-02-18T05:10:08;9.20;99.90
22966;DHT22;11649;48.090;9.754;2023-02-18T05:12:36;9.20;99.90
22966;DHT22;11649;48.090;9.754;2023-02-18T05:15:03;9.20;99.90
22966;DHT22;11649;48.090;9.754;2023-02-18T05:17:30;9.20;99.90
22966;DHT22;11649;48.090;9.754;2023-02-18T05:19:56;9.20;99.90
22966;DHT22;11649;48.090;9.754;2023-02-18T05:22:23;9.20;99.90
22966;DHT22;11649;48.090;9.754;2023-02-18T05:24:50;9.30;99.90
22966;DHT22;11649;48.090;9.754;2023-02-18T05:27:17;9.30;99.90
22966;DHT22;11649;48.090;9.754;2023-02-18T05:29:44;9.30;99.90
22966;DHT22;11649;48.090;9.754;2023-02-18T05:32:10;9.30;99.90
22966;DHT22;11649;48.090;9.754;2023-02-18T05:34:37;9.30;99.90
22966;DHT22;11649;48.090;9.754;2023-02-18T05:37:04;9.30;99.90
22966;DHT22;11649;48.090;9.754;2023-02-18T05:39:30;9.30;99.90
22966;DHT22;11649;48.090;9.754;2023-02-18T05:41:57;9.40;99.90
22966;DHT22;11649;48.090;9.754;2023-02-18T05:44:24;9.30;99.90
22966;DHT22;11649;48.090;9.754;2023-02-18T05:46:58;9.80;99.90
22966;DHT22;11649;48.090;9.754;2023-02-18T05:49:25;9.40;99.90
22966;DHT22;11649;48.090;9.754;2023-02-18T05:51:52;9.30;99.90
22966;DHT22;11649;48.090;9.754;2023-02-18T05:54:19;9.30;99.90
22966;DHT22;11649;48.090;9.754;2023-02-18T05:56:45;9.30;99.90
22966;DHT22;11649;48.090;9.754;2023-02-18T05:59:12;9.30;99.90
22966;DHT22;11649;48.090;9.754;2023-02-18T06:01:39;9.30;99.90
22966;DHT22;11649;48.090;9.754;2023-02-18T06:04:06;9.40;99.90
22966;DHT22;11649;48.090;9.754;2023-02-18T06:06:34;9.40;99.90
22966;DHT22;11649;48.090;9.754;2023-02-18T06:09:01;9.40;99.90
22966;DHT22;11649;48.090;9.754;2023-02-18T06:11:28;9.40;99.90
22966;DHT22;11649;48.090;9.754;2023-02-18T06:13:54;9.30;99.90
22966;DHT22;11649;48.090;9.754;2023-02-18T06:16:21;9.40;99.90
22966;DHT22;11649;48.090;9.754;2023-02-18T06:18:48;9.30;99.90
22966;DHT22;11649;48.090;9.754;2023-02-18T06:21:15;9.30;99.90
22966;DHT22;11649;48.090;9.754;2023-02-18T06:23:42;9.30;99.90
22966;DHT22;11649;48.090;9.754;2023-02-18T06:26:09;9.30;99.90
22966;DHT22;11649;48.090;9.754;2023-02-18T06:28:36;9.30;99.90
22966;DHT22;11649;48.090;9.754;2023-02-18T06:31:03;9.30;99.90
22966;DHT22;11649;48.090;9.754;2023-02-18T06:33:30;9.30;99.90
22966;DHT22;11649;48.090;9.754;2023-02-18T06:36:02;9.30;99.90
22966;DHT22;11649;48.090;9.754;2023-02-18T06:38:36;9.30;99.90
22966;DHT22;11649;48.090;9.754;2023-02-18T06:41:04;9.20;99.90
22966;DHT22;11649;48.090;9.754;2023-02-18T06:43:31;9.20;99.90
22966;DHT22;11649;48.090;9.754;2023-02-18T06:45:58;9.20;99.90
22966;DHT22;11649;48.090;9.754;2023-02-18T06:48:24;9.20;99.90
22966;DHT22;11649;48.090;9.754;2023-02-18T06:50:51;9.20;99.90
22966;DHT22;11649;48.090;9.754;2023-02-18T06:53:18;9.20;99.90
22966;DHT22;11649;48.090;9.754;2023-02-18T06:55:45;9.20;99.90
22966;DHT22;11649;48.090;9.754;2023-02-18T06:58:12;9.20;99.90
22966;DHT22;11649;48.090;9.754;2023-02-18T07:00:40;9.20;99.90
22966;DHT22;11649;48.090;9.754;2023-02-18T07:03:07;9.20;99.90
22966;DHT22;11649;48.090;9.754;2023-02-18T07:05:34;9.20;99.90
22966;DHT22;11649;48.090;9.754;2023-02-18T07:08:01;9.20;99.90
22966;DHT22;11649;48.090;9.754;2023-02-18T07:10:27;9.20;99.90
22966;DHT22;11649;48.090;9.754;2023-02-18T07:12:54;9.20;99.90
22966;DHT22;11649;48.090;9.754;2023-02-18T07:15:21;9.20;99.90
22966;DHT22;11649;48.090;9.754;2023-02-18T07:17:50;9.20;99.90
22966;DHT22;11649;48.090;9.754;2023-02-18T07:20:18;9.30;99.90
22966;DHT22;11649;48.090;9.754;2023-02-18T07:22:45;9.30;99.90
22966;DHT22;11649;48.090;9.754;2023-02-18T07:25:12;9.30;99.90
22966;DHT22;11649;48.090;9.754;2023-02-18T07:27:39;9.40;99.90
22966;DHT22;11649;48.090;9.754;2023-02-18T07:30:06;9.50;99.90
22966;DHT22;11649;48.090;9.754;2023-02-18T07:32:34;9.50;99.90
22966;DHT22;11649;48.090;9.754;2023-02-18T07:35:01;9.60;99.90
22966;DHT22;11649;48.090;9.754;2023-02-18T07:37:28;9.70;99.90
22966;DHT22;11649;48.090;9.754;2023-02-18T07:39:55;9.90;99.90
22966;DHT22;11649;48.090;9.754;2023-02-18T07:42:22;9.90;99.90
22966;DHT22;11649;48.090;9.754;2023-02-18T07:44:49;10.00;99.90
22966;DHT22;11649;48.090;9.754;2023-02-18T07:47:16;10.10;99.90
22966;DHT22;11649;48.090;9.754;2023-02-18T07:49:46;10.10;99.90
22966;DHT22;11649;48.090;9.754;2023-02-18T07:52:14;10.10;99.90
22966;DHT22;11649;48.090;9.754;2023-02-18T07:54:41;10.10;99.90
22966;DHT22;11649;48.090;9.754;2023-02-18T07:57:08;10.20;99.90
22966;DHT22;11649;48.090;9.754;2023-02-18T07:59:35;10.20;99.90
22966;DHT22;11649;48.090;9.754;2023-02-18T08:02:03;10.20;99.90
22966;DHT22;11649;48.090;9.754;2023-02-18T08:04:31;10.30;99.90
22966;DHT22;11649;48.090;9.754;2023-02-18T08:06:58;10.30;99.90
22966;DHT22;11649;48.090;9.754;2023-02-18T08:09:24;10.30;99.90
22966;DHT22;11649;48.090;9.754;2023-02-18T08:11:51;10.40;99.90
22966;DHT22;11649;48.090;9.754;2023-02-18T08:14:18;10.90;99.90
22966;DHT22;11649;48.090;9.754;2023-02-18T08:16:44;10.40;99.90
22966;DHT22;11649;48.090;9.754;2023-02-18T08:19:11;10.50;99.90
22966;DHT22;11649;48.090;9.754;2023-02-18T08:21:38;10.50;99.90
22966;DHT22;11649;48.090;9.754;2023-02-18T08:24:05;10.40;99.90
22966;DHT22;11649;48.090;9.754;2023-02-18T08:26:33;10.50;99.90
22966;DHT22;11649;48.090;9.754;2023-02-18T08:29:00;10.50;99.90
22966;DHT22;11649;48.090;9.754;2023-02-18T08:31:28;10.70;99.90
22966;DHT22;11649;48.090;9.754;2023-02-18T08:33:56;10.40;99.90
22966;DHT22;11649;48.090;9.754;2023-02-18T08:36:23;10.40;99.90
22966;DHT22;11649;48.090;9.754;2023-02-18T08:38:50;10.50;99.90
22966;DHT22;11649;48.090;9.754;2023-02-18T08:41:17;10.60;99.90
22966;DHT22;11649;48.090;9.754;2023-02-18T08:43:45;10.60;99.90
22966;DHT22;11649;48.090;9.754;2023-02-18T08:46:13;10.60;99.90
22966;DHT22;11649;48.090;9.754;2023-02-18T08:48:50;10.60;99.90
22966;DHT22;11649;48.090;9.754;2023-02-18T08:51:21;10.60;99.90
22966;DHT22;11649;48.090;9.754;2023-02-18T08:53:48;10.60;99.90
22966;DHT22;11649;48.090;9.754;2023-02-18T08:56:15;10.70;99.90
22966;DHT22;11649;48.090;9.754;2023-02-18T08:58:43;10.80;99.90
22966;DHT22;11649;48.090;9.754;2023-02-18T09:01:11;10.90;99.90
22966;DHT22;11649;48.090;9.754;2023-02-18T09:03:38;10.90;99.90
22966;DHT22;11649;48.090;9.754;2023-02-18T09:06:06;10.90;99.90
22966;DHT22;11649;48.090;9.754;2023-02-18T09:08:34;10.90;99.90
22966;DHT22;11649;48.090;9.754;2023-02-18T09:11:02;10.90;99.90
22966;DHT22;11649;48.090;9.754;2023-02-18T09:13:31;10.90;99.90
22966;DHT22;11649;48.090;9.754;2023-02-18T09:15:59;11.00;99.90
22966;DHT22;11649;48.090;9.754;2023-02-18T09:18:26;11.20;99.90
22966;DHT22;11649;48.090;9.754;2023-02-18T09:20:58;11.30;99.90
22966;DHT22;11649;48.090;9.754;2023-02-18T09:23:26;11.50;99.90
22966;DHT22;11649;48.090;9.754;2023-02-18T09:25:53;11.50;99.90
22966;DHT22;11649;48.090;9.754;2023-02-18T09:28:21;11.60;99.90
22966;DHT22;11649;48.090;9.754;2023-02-18T09:30:47;11.50;99.90
22966;DHT22;11649;48.090;9.754;2023-02-18T09:33:15;11.60;99.90
22966;DHT22;11649;48.090;9.754;2023-02-18T09:35:44;11.50;99.90
22966;DHT22;11649;48.090;9.754;2023-02-18T09:38:12;11.60;99.90
22966;DHT22;11649;48.090;9.754;2023-02-18T09:40:43;11.70;99.90
22966;DHT22;11649;48.090;9.754;2023-02-18T09:44:03;11.90;99.90
22966;DHT22;11649;48.090;9.754;2023-02-18T09:46:08;11.90;99.90
22966;DHT22;11649;48.090;9.754;2023-02-18T09:48:42;11.80;99.90
22966;DHT22;11649;48.090;9.754;2023-02-18T09:51:13;11.90;99.90
22966;DHT22;11649;48.090;9.754;2023-02-18T09:53:41;12.10;99.90
22966;DHT22;11649;48.090;9.754;2023-02-18T09:56:14;12.20;99.90
22966;DHT22;11649;48.090;9.754;2023-02-18T09:58:42;12.30;99.90
22966;DHT22;11649;48.090;9.754;2023-02-18T10:04:09;12.30;99.90
22966;DHT22;11649;48.090;9.754;2023-02-18T10:06:38;12.30;99.90
22966;DHT22;11649;48.090;9.754;2023-02-18T10:12:16;12.20;99.90
22966;DHT22;11649;48.090;9.754;2023-02-18T10:14:55;12.20;99.90
22966;DHT22;11649;48.090;9.754;2023-02-18T10:17:24;12.30;99.90
22966;DHT22;11649;48.090;9.754;2023-02-18T10:19:53;12.10;99.90
22966;DHT22;11649;48.090;9.754;2023-02-18T10:22:21;12.00;99.90
22966;DHT22;11649;48.090;9.754;2023-02-18T10:27:27;11.90;99.90
22966;DHT22;11649;48.090;9.754;2023-02-18T10:29:57;11.80;99.90
22966;DHT22;11649;48.090;9.754;2023-02-18T10:32:35;11.80;99.90
22966;DHT22;11649;48.090;9.754;2023-02-18T10:35:23;11.80;99.90
22966;DHT22;11649;48.090;9.754;2023-02-18T10:43:59;12.00;99.90
22966;DHT22;11649;48.090;9.754;2023-02-18T10:46:41;12.00;99.90
22966;DHT22;11649;48.090;9.754;2023-02-18T10:52:08;12.00;99.90
22966;DHT22;11649;48.090;9.754;2023-02-18T10:57:23;12.00;99.90
22966;DHT22;11649;48.090;9.754;2023-02-18T11:02:43;12.10;99.90
22966;DHT22;11649;48.090;9.754;2023-02-18T11:05:24;12.20;99.90
22966;DHT22;11649;48.090;9.754;2023-02-18T11:08:01;12.90;99.90
22966;DHT22;11649;48.090;9.754;2023-02-18T11:10:30;12.50;99.90
22966;DHT22;11649;48.090;9.754;2023-02-18T11:13:01;12.60;99.90
22966;DHT22;11649;48.090;9.754;2023-02-18T11:15:29;12.90;99.90
22966;DHT22;11649;48.090;9.754;2023-02-18T11:18:11;13.00;99.90
22966;DHT22;11649;48.090;9.754;2023-02-18T11:20:39;13.20;99.90
22966;DHT22;11649;48.090;9.754;2023-02-18T11:25:34;13.40;99.90
22966;DHT22;11649;48.090;9.754;2023-02-18T11:30:42;13.30;99.30
22966;DHT22;11649;48.090;9.754;2023-02-18T11:33:31;13.20;99.90
22966;DHT22;11649;48.090;9.754;2023-02-18T11:36:04;13.10;99.90
22966;DHT22;11649;48.090;9.754;2023-02-18T11:38:40;13.00;99.90
22966;DHT22;11649;48.090;9.754;2023-02-18T11:41:14;12.80;99.90
22966;DHT22;11649;48.090;9.754;2023-02-18T11:43:44;12.70;99.90
22966;DHT22;11649;48.090;9.754;2023-02-18T11:46:15;13.10;99.90
22966;DHT22;11649;48.090;9.754;2023-02-18T11:48:43;12.80;99.90
22966;DHT22;11649;48.090;9.754;2023-02-18T11:51:33;12.90;99.90
22966;DHT22;11649;48.090;9.754;2023-02-18T11:54:21;12.80;99.90
22966;DHT22;11649;48.090;9.754;2023-02-18T11:57:04;12.80;99.60
22966;DHT22;11649;48.090;9.754;2023-02-18T11:59:34;12.80;97.00
22966;DHT22;11649;48.090;9.754;2023-02-18T12:04:42;12.60;97.70
22966;DHT22;11649;48.090;9.754;2023-02-18T12:07:21;12.60;97.90
22966;DHT22;11649;48.090;9.754;2023-02-18T12:10:03;12.60;97.10
22966;DHT22;11649;48.090;9.754;2023-02-18T12:12:35;12.70;98.30
22966;DHT22;11649;48.090;9.754;2023-02-18T12:15:07;12.70;97.70
22966;DHT22;11649;48.090;9.754;2023-02-18T12:17:58;12.80;97.00
22966;DHT22;11649;48.090;9.754;2023-02-18T12:35:10;13.00;95.20
22966;DHT22;11649;48.090;9.754;2023-02-18T12:38:11;13.00;95.10
22966;DHT22;11649;48.090;9.754;2023-02-18T12:41:01;13.00;94.60
22966;DHT22;11649;48.090;9.754;2023-02-18T12:44:00;12.90;95.10
22966;DHT22;11649;48.090;9.754;2023-02-18T12:47:33;12.80;94.70
22966;DHT22;11649;48.090;9.754;2023-02-18T12:56:06;12.70;96.20
22966;DHT22;11649;48.090;9.754;2023-02-18T13:01:26;12.70;95.50
22966;DHT22;11649;48.090;9.754;2023-02-18T13:13:17;12.80;95.70
22966;DHT22;11649;48.090;9.754;2023-02-18T13:18:29;12.70;94.90
22966;DHT22;11649;48.090;9.754;2023-02-18T13:21:00;12.70;94.70
22966;DHT22;11649;48.090;9.754;2023-02-18T13:26:09;12.70;95.90
22966;DHT22;11649;48.090;9.754;2023-02-18T13:39:52;12.40;97.20
22966;DHT22;11649;48.090;9.754;2023-02-18T13:42:33;12.40;97.30
22966;DHT22;11649;48.090;9.754;2023-02-18T13:45:04;12.30;96.50
22966;DHT22;11649;48.090;9.754;2023-02-18T13:47:44;12.40;97.50
22966;DHT22;11649;48.090;9.754;2023-02-18T13:50:28;12.40;96.50
22966;DHT22;11649;48.090;9.754;2023-02-18T13:58:40;12.50;97.20
22966;DHT22;11649;48.090;9.754;2023-02-18T14:06:14;12.50;96.90
22966;DHT22;11649;48.090;9.754;2023-02-18T14:08:42;12.40;95.90
22966;DHT22;11649;48.090;9.754;2023-02-18T14:13:54;12.30;96.90
22966;DHT22;11649;48.090;9.754;2023-02-18T14:16:21;12.20;96.40
22966;DHT22;11649;48.090;9.754;2023-02-18T14:18:59;12.20;95.70
22966;DHT22;11649;48.090;9.754;2023-02-18T14:21:39;12.20;95.80
22966;DHT22;11649;48.090;9.754;2023-02-18T14:24:09;12.20;95.80
22966;DHT22;11649;48.090;9.754;2023-02-18T14:26:43;12.10;97.00
22966;DHT22;11649;48.090;9.754;2023-02-18T14:29:29;12.10;96.30
22966;DHT22;11649;48.090;9.754;2023-02-18T14:32:03;12.10;96.30
22966;DHT22;11649;48.090;9.754;2023-02-18T14:37:56;12.10;96.60
22966;DHT22;11649;48.090;9.754;2023-02-18T14:40:36;12.20;95.30
22966;DHT22;11649;48.090;9.754;2023-02-18T14:45:59;12.10;95.00
22966;DHT22;11649;48.090;9.754;2023-02-18T14:51:18;12.10;95.90
22966;DHT22;11649;48.090;9.754;2023-02-18T14:53:47;12.10;96.00
22966;DHT22;11649;48.090;9.754;2023-02-18T14:56:17;12.20;95.80
22966;DHT22;11649;48.090;9.754;2023-02-18T14:58:47;12.10;95.00
22966;DHT22;11649;48.090;9.754;2023-02-18T15:05:15;12.10;96.00
22966;DHT22;11649;48.090;9.754;2023-02-18T15:07:54;12.10;95.60
22966;DHT22;11649;48.090;9.754;2023-02-18T15:10:21;12.10;95.20
22966;DHT22;11649;48.090;9.754;2023-02-18T15:12:48;12.20;94.80
22966;DHT22;11649;48.090;9.754;2023-02-18T15:15:22;12.10;94.80
22966;DHT22;11649;48.090;9.754;2023-02-18T15:17:49;12.00;95.30
22966;DHT22;11649;48.090;9.754;2023-02-18T15:20:16;12.00;96.30
22966;DHT22;11649;48.090;9.754;2023-02-18T15:22:43;12.00;95.20
22966;DHT22;11649;48.090;9.754;2023-02-18T15:25:13;12.00;95.40
22966;DHT22;11649;48.090;9.754;2023-02-18T15:27:42;11.90;95.50
22966;DHT22;11649;48.090;9.754;2023-02-18T15:30:26;11.90;95.20
22966;DHT22;11649;48.090;9.754;2023-02-18T15:32:56;11.90;96.60
22966;DHT22;11649;48.090;9.754;2023-02-18T15:35:27;11.90;96.20
22966;DHT22;11649;48.090;9.754;2023-02-18T15:37:58;11.90;96.00
22966;DHT22;11649;48.090;9.754;2023-02-18T15:40:32;11.90;96.50
22966;DHT22;11649;48.090;9.754;2023-02-18T15:43:01;11.90;95.70
22966;DHT22;11649;48.090;9.754;2023-02-18T15:48:01;11.90;96.80
22966;DHT22;11649;48.090;9.754;2023-02-18T15:50:32;11.90;96.70
22966;DHT22;11649;48.090;9.754;2023-02-18T15:53:08;11.80;96.40
22966;DHT22;11649;48.090;9.754;2023-02-18T15:55:40;11.90;95.80
22966;DHT22;11649;48.090;9.754;2023-02-18T15:58:16;11.80;97.30
22966;DHT22;11649;48.090;9.754;2023-02-18T16:00:58;11.60;97.70
22966;DHT22;11649;48.090;9.754;2023-02-18T16:03:51;11.60;98.10
22966;DHT22;11649;48.090;9.754;2023-02-18T16:06:23;11.60;97.90
22966;DHT22;11649;48.090;9.754;2023-02-18T16:11:36;11.60;97.50
22966;DHT22;11649;48.090;9.754;2023-02-18T16:14:03;11.60;97.20
22966;DHT22;11649;48.090;9.754;2023-02-18T16:16:35;11.60;97.30
22966;DHT22;11649;48.090;9.754;2023-02-18T16:19:03;11.60;97.30
22966;DHT22;11649;48.090;9.754;2023-02-18T16:21:35;11.50;98.50
22966;DHT22;11649;48.090;9.754;2023-02-18T16:24:28;11.50;98.40
22966;DHT22;11649;48.090;9.754;2023-02-18T16:27:00;11.40;98.80
22966;DHT22;11649;48.090;9.754;2023-02-18T16:29:35;11.40;98.50
22966;DHT22;11649;48.090;9.754;2023-02-18T16:32:02;11.40;98.90
22966;DHT22;11649;48.090;9.754;2023-02-18T16:34:29;11.40;98.60
22966;DHT22;11649;48.090;9.754;2023-02-18T16:36:56;11.40;98.20
22966;DHT22;11649;48.090;9.754;2023-02-18T16:39:41;11.40;98.40
22966;DHT22;11649;48.090;9.754;2023-02-18T16:42:09;11.40;98.80
22966;DHT22;11649;48.090;9.754;2023-02-18T16:44:37;11.30;99.30
22966;DHT22;11649;48.090;9.754;2023-02-18T16:47:04;11.20;99.50
22966;DHT22;11649;48.090;9.754;2023-02-18T16:49:33;11.20;99.90
22966;DHT22;11649;48.090;9.754;2023-02-18T16:52:04;11.20;99.60
22966;DHT22;11649;48.090;9.754;2023-02-18T16:54:32;11.10;99.70
22966;DHT22;11649;48.090;9.754;2023-02-18T16:57:00;11.10;99.40
22966;DHT22;11649;48.090;9.754;2023-02-18T16:59:26;11.60;99.90
22966;DHT22;11649;48.090;9.754;2023-02-18T17:01:53;11.10;99.90
22966;DHT22;11649;48.090;9.754;2023-02-18T17:04:21;11.40;99.90
22966;DHT22;11649;48.090;9.754;2023-02-18T17:06:49;10.90;99.90
22966;DHT22;11649;48.090;9.754;2023-02-18T17:09:21;10.90;99.90
22966;DHT22;11649;48.090;9.754;2023-02-18T17:11:49;10.90;99.90
22966;DHT22;11649;48.090;9.754;2023-02-18T17:14:18;10.90;99.90
22966;DHT22;11649;48.090;9.754;2023-02-18T17:16:47;10.80;99.90
22966;DHT22;11649;48.090;9.754;2023-02-18T17:19:15;10.80;99.90
22966;DHT22;11649;48.090;9.754;2023-02-18T17:21:42;10.80;99.90
22966;DHT22;11649;48.090;9.754;2023-02-18T17:24:14;10.80;99.90
22966;DHT22;11649;48.090;9.754;2023-02-18T17:26:42;10.80;99.90
22966;DHT22;11649;48.090;9.754;2023-02-18T17:29:09;10.70;99.90
22966;DHT22;11649;48.090;9.754;2023-02-18T17:31:39;10.70;99.90
22966;DHT22;11649;48.090;9.754;2023-02-18T17:34:14;10.70;99.90
22966;DHT22;11649;48.090;9.754;2023-02-18T17:36:42;10.60;99.90
22966;DHT22;11649;48.090;9.754;2023-02-18T17:39:12;10.60;99.90
22966;DHT22;11649;48.090;9.754;2023-02-18T17:41:40;10.70;99.90
22966;DHT22;11649;48.090;9.754;2023-02-18T17:46:42;10.60;99.90
22966;DHT22;11649;48.090;9.754;2023-02-18T17:49:08;10.60;99.90
22966;DHT22;11649;48.090;9.754;2023-02-18T17:51:35;10.70;99.90
22966;DHT22;11649;48.090;9.754;2023-02-18T17:54:11;10.60;99.90
22966;DHT22;11649;48.090;9.754;2023-02-18T17:56:39;10.60;99.90
22966;DHT22;11649;48.090;9.754;2023-02-18T17:59:06;10.50;99.90
22966;DHT22;11649;48.090;9.754;2023-02-18T18:01:33;10.50;99.90
22966;DHT22;11649;48.090;9.754;2023-02-18T18:07:47;10.50;99.90
22966;DHT22;11649;48.090;9.754;2023-02-18T18:10:16;10.50;99.90
22966;DHT22;11649;48.090;9.754;2023-02-18T18:12:43;10.50;99.90
22966;DHT22;11649;48.090;9.754;2023-02-18T18:15:26;10.50;99.90
22966;DHT22;11649;48.090;9.754;2023-02-18T18:17:54;10.40;99.90
22966;DHT22;11649;48.090;9.754;2023-02-18T18:20:21;10.40;99.90
22966;DHT22;11649;48.090;9.754;2023-02-18T18:22:50;10.50;99.80
22966;DHT22;11649;48.090;9.754;2023-02-18T18:25:27;10.40;99.90
22966;DHT22;11649;48.090;9.754;2023-02-18T18:27:54;10.40;99.90
22966;DHT22;11649;48.090;9.754;2023-02-18T18:30:29;10.30;99.90
22966;DHT22;11649;48.090;9.754;2023-02-18T18:32:56;10.40;99.90